ADDS METAR Data INFO
IDs: Format: Raw Decoded Include TAF

Data at: 0904 UTC 20 Oct 2017

PHJH 200345Z 02018G25KT 15SM FEW020 SCT030 25/18 A3004 RMK LAST
PHJH 200245Z 02016G27KT 15SM FEW030 SCT040 25/18 A3004
PHJH 200145Z 03020G31KT 15SM FEW030 SCT040 27/18 A3003
PHJH 200045Z 04019G28KT 15SM FEW030 SCT040 27/18 A3004
PHJH 192345Z 04018G26KT 15SM FEW020 SCT030 27/18 A3005
PHJH 192245Z 05013G24KT 15SM FEW020 SCT030 27/18 A3007
PHJH 192145Z 03014G24KT 15SM FEW030 28/19 A3009
PHJH 192045Z 03018G27KT 15SM FEW030 27/18 A3010
PHJH 191945Z 03013G31KT 15SM SCT030 27/18 A3011
PHJH 191845Z 02020G26KT 15SM FEW030 26/18 A3010
PHJH 191745Z 03016G22KT 15SM SCT030 24/17 A3010
PHJH 191645Z 04012G23KT 15SM -RA FEW020 SCT030 24/17 A3007
PHJH 191600Z 04017G22KT 10SM -RA FEW020 SCT030 24/18 A3007
PHJH 190345Z 03015KT 15SM SCT035 25/17 A3004 RMK LAST
PHJH 190245Z 03015G26KT 15SM FEW030 FEW040 SCT060 26/18 A3005
PHJH 190145Z 05014G24KT 15SM FEW035 SCT050 27/18 A3004
PHJH 190045Z 05015G28KT 15SM SCT040 SCT050 27/18 A3005
PHJH 182345Z 05013G24KT 15SM SCT040 27/19 A3009
PHJH 182245Z 03013KT 12SM -RA SCT030 BKN040 24/22 A3008
PHJH 182145Z 04012KT 10SM -RA SCT020 BKN030 BKN040 23/20 A3010